createdAt,value
2022-08-28T00:00:45.658Z,5.57
2022-08-28T00:04:38.410Z,4.88
2022-08-28T00:08:31.814Z,3.80
2022-08-28T00:12:24.295Z,3.78
2022-08-28T00:16:18.852Z,3.90
2022-08-28T00:20:18.710Z,4.22
2022-08-28T00:24:12.028Z,3.55
2022-08-28T00:28:10.490Z,3.95
2022-08-28T00:32:06.507Z,3.38
2022-08-28T00:36:01.217Z,3.10
2022-08-28T00:39:53.973Z,3.47
2022-08-28T00:43:49.539Z,2.90
2022-08-28T00:47:42.326Z,3.53
2022-08-28T00:51:54.663Z,2.97
2022-08-28T00:55:47.827Z,3.10
2022-08-28T00:59:40.748Z,3.00
2022-08-28T01:03:33.264Z,2.85
2022-08-28T01:07:26.533Z,2.78
2022-08-28T01:11:20.409Z,2.83
2022-08-28T01:15:17.596Z,2.95
2022-08-28T01:19:17.380Z,4.10
2022-08-28T01:23:51.747Z,3.33
2022-08-28T01:27:44.431Z,3.00
2022-08-28T01:31:38.184Z,3.00
2022-08-28T01:35:35.153Z,3.10
2022-08-28T01:39:29.784Z,3.30
2022-08-28T01:43:24.523Z,2.90
2022-08-28T01:47:17.053Z,3.20
2022-08-28T01:51:11.463Z,3.40
2022-08-28T01:55:06.354Z,2.95
2022-08-28T01:59:02.543Z,2.92
2022-08-28T02:02:57.505Z,3.33
2022-08-28T02:06:50.893Z,2.95
2022-08-28T02:10:43.869Z,3.13
2022-08-28T02:14:36.509Z,2.90
2022-08-28T02:18:29.105Z,3.53
2022-08-28T02:22:21.735Z,3.20
2022-08-28T02:26:14.850Z,3.28
2022-08-28T02:30:10.150Z,3.30
2022-08-28T02:34:03.019Z,3.40
2022-08-28T02:37:55.678Z,3.15
2022-08-28T02:41:48.791Z,3.50
2022-08-28T02:45:41.502Z,3.60
2022-08-28T02:49:36.367Z,3.45
2022-08-28T02:53:30.123Z,3.60
2022-08-28T02:57:22.659Z,3.10
2022-08-28T03:01:15.675Z,3.33
2022-08-28T03:05:09.843Z,4.40
2022-08-28T03:09:02.840Z,4.13
2022-08-28T03:12:55.375Z,4.35
2022-08-28T03:16:48.481Z,3.95
2022-08-28T03:20:42.177Z,4.30
2022-08-28T03:24:50.339Z,3.95
2022-08-28T03:28:50.862Z,4.28
2022-08-28T03:32:43.594Z,4.72
2022-08-28T03:36:36.049Z,3.97
2022-08-28T03:40:28.658Z,4.15
2022-08-28T03:44:21.161Z,4.68
2022-08-28T03:48:14.025Z,4.25
2022-08-28T03:52:06.688Z,5.13
2022-08-28T03:55:59.408Z,4.78
2022-08-28T03:59:53.811Z,5.32
2022-08-28T04:03:47.106Z,4.57
2022-08-28T04:07:40.279Z,4.25
2022-08-28T04:11:38.285Z,4.60
2022-08-28T04:15:30.739Z,4.70
2022-08-28T04:19:23.601Z,4.45
2022-08-28T04:23:16.175Z,4.90
2022-08-28T04:27:08.609Z,4.70
2022-08-28T04:31:01.402Z,5.15
2022-08-28T04:34:54.088Z,5.18
2022-08-28T04:38:46.737Z,5.20
2022-08-28T04:42:40.326Z,5.07
2022-08-28T04:46:32.987Z,4.60
2022-08-28T04:50:25.586Z,5.38
2022-08-28T04:54:18.160Z,5.20
2022-08-28T04:58:10.826Z,5.07
2022-08-28T05:02:03.941Z,4.53
2022-08-28T05:05:56.623Z,5.40
2022-08-28T05:09:53.599Z,6.05
2022-08-28T05:17:38.527Z,6.75
2022-08-28T05:21:31.368Z,8.27
2022-08-28T05:25:23.843Z,7.50
2022-08-28T05:29:17.134Z,6.25
2022-08-28T05:33:11.475Z,7.07
2022-08-28T05:37:06.835Z,6.35
2022-08-28T05:40:59.311Z,5.82
2022-08-28T05:44:54.671Z,6.13
2022-08-28T05:48:49.493Z,6.53
2022-08-28T05:52:43.261Z,5.82
2022-08-28T05:56:44.759Z,6.45
2022-08-28T06:00:37.367Z,6.55
2022-08-28T06:04:30.229Z,6.07
2022-08-28T06:08:23.406Z,7.13
2022-08-28T06:12:16.821Z,6.43
2022-08-28T06:16:11.962Z,6.88
2022-08-28T06:20:04.784Z,6.65
2022-08-28T06:23:57.456Z,6.18
2022-08-28T06:27:49.830Z,6.18
2022-08-28T06:31:42.530Z,6.15
2022-08-28T06:35:39.944Z,5.65
2022-08-28T06:39:32.337Z,4.25
2022-08-28T06:43:27.587Z,4.30
2022-08-28T06:47:19.952Z,3.85
2022-08-28T06:51:13.056Z,3.70
2022-08-28T06:55:05.863Z,3.35
2022-08-28T06:58:59.487Z,2.95
2022-08-28T07:02:51.859Z,3.15
2022-08-28T07:06:53.790Z,3.33
2022-08-28T07:10:47.615Z,2.90
2022-08-28T07:14:39.966Z,3.60
2022-08-28T07:18:32.473Z,3.67
2022-08-28T07:22:26.691Z,3.50
2022-08-28T07:26:23.423Z,3.60
2022-08-28T07:30:16.059Z,3.55
2022-08-28T07:34:10.051Z,3.63
2022-08-28T07:38:02.960Z,3.60
2022-08-28T07:41:55.445Z,3.40
2022-08-28T07:45:48.729Z,3.35
2022-08-28T07:49:41.820Z,3.13
2022-08-28T07:53:36.468Z,3.40
2022-08-28T07:57:29.699Z,3.20
2022-08-28T08:01:22.328Z,2.97
2022-08-28T08:05:15.002Z,2.85
2022-08-28T08:09:09.981Z,3.10
2022-08-28T08:13:02.474Z,3.00
2022-08-28T08:16:55.211Z,3.17
2022-08-28T08:20:47.822Z,3.10
2022-08-28T08:24:40.233Z,3.58
2022-08-28T08:28:35.459Z,3.05
2022-08-28T08:32:27.915Z,3.33
2022-08-28T08:36:23.340Z,3.67
2022-08-28T08:40:19.331Z,3.63
2022-08-28T08:44:45.311Z,3.72
2022-08-28T08:48:41.217Z,3.40
2022-08-28T08:52:59.887Z,3.60
2022-08-28T08:56:56.066Z,3.85
2022-08-28T09:00:54.847Z,4.00
2022-08-28T09:04:55.980Z,3.75
2022-08-28T09:08:56.931Z,3.50
2022-08-28T09:12:59.941Z,4.50
2022-08-28T09:16:53.061Z,4.00
2022-08-28T09:20:53.155Z,4.00
2022-08-28T09:24:45.753Z,4.10
2022-08-28T09:28:41.241Z,3.90
2022-08-28T09:32:44.403Z,4.13
2022-08-28T09:36:38.547Z,3.85
2022-08-28T09:40:52.051Z,3.95
2022-08-28T09:44:51.935Z,4.10
2022-08-28T09:48:47.797Z,3.63
2022-08-28T09:52:40.240Z,3.70
2022-08-28T09:56:35.817Z,3.40
2022-08-28T10:00:34.096Z,3.60
2022-08-28T10:04:50.165Z,3.15
2022-08-28T10:08:58.271Z,3.20
2022-08-28T10:13:11.819Z,3.65
2022-08-28T10:17:10.267Z,3.17
2022-08-28T10:21:05.564Z,3.10
2022-08-28T10:25:10.094Z,3.20
2022-08-28T10:29:42.435Z,3.20
2022-08-28T10:33:53.686Z,3.33
2022-08-28T10:38:14.256Z,3.35
2022-08-28T10:42:07.648Z,3.50
2022-08-28T10:46:04.265Z,3.72
2022-08-28T10:50:02.066Z,3.38
2022-08-28T10:53:58.400Z,3.22
2022-08-28T11:01:46.363Z,2.90
2022-08-28T11:05:55.068Z,2.97
2022-08-28T11:09:49.100Z,2.88
2022-08-28T11:13:45.208Z,2.67
2022-08-28T11:17:41.724Z,3.00
2022-08-28T11:21:45.011Z,2.83
2022-08-28T11:25:50.277Z,3.00
2022-08-28T11:30:00.224Z,3.08
2022-08-28T11:33:53.171Z,3.03
2022-08-28T11:37:48.897Z,3.35
2022-08-28T11:42:20.197Z,2.97
2022-08-28T11:46:12.707Z,3.30
2022-08-28T11:50:27.463Z,3.72
2022-08-28T11:54:38.161Z,2.97
2022-08-28T11:58:46.408Z,3.25
2022-08-28T12:02:41.649Z,2.92
2022-08-28T12:06:52.291Z,3.03
2022-08-28T12:10:48.359Z,2.92
2022-08-28T12:14:40.969Z,2.90
2022-08-28T12:18:53.692Z,3.35
2022-08-28T12:22:53.235Z,3.05
2022-08-28T12:26:51.794Z,3.15
2022-08-28T12:30:56.150Z,2.72
2022-08-28T12:34:58.616Z,2.97
2022-08-28T12:38:52.226Z,3.17
2022-08-28T12:42:56.819Z,3.10
2022-08-28T12:46:49.603Z,3.00
2022-08-28T12:50:42.352Z,2.75
2022-08-28T12:54:35.535Z,2.90
2022-08-28T12:58:39.552Z,2.80
2022-08-28T13:02:34.005Z,3.13
2022-08-28T13:06:28.977Z,2.45
2022-08-28T14:55:32.873Z,2.50
2022-08-28T14:59:27.693Z,2.67
2022-08-28T15:03:20.473Z,2.75
2022-08-28T15:07:13.474Z,2.67
2022-08-28T15:11:16.548Z,2.38
2022-08-28T15:15:11.262Z,2.25
2022-08-28T15:19:04.531Z,2.40
2022-08-28T15:22:57.032Z,2.83
2022-08-28T15:26:49.674Z,2.80
2022-08-28T15:30:43.622Z,2.70
2022-08-28T15:34:36.073Z,2.50
2022-08-28T15:38:28.622Z,2.17
2022-08-28T15:42:21.202Z,2.30
2022-08-28T15:46:14.230Z,2.70
2022-08-28T15:50:07.583Z,2.40
2022-08-28T15:54:03.882Z,2.70
2022-08-28T15:57:57.173Z,3.22
2022-08-28T16:01:50.189Z,2.72
2022-08-28T16:05:42.771Z,2.63
2022-08-28T16:09:35.179Z,2.63
2022-08-28T16:13:27.781Z,2.55
2022-08-28T16:17:20.181Z,2.80
2022-08-28T16:21:13.674Z,2.45
2022-08-28T16:25:07.166Z,2.70
2022-08-28T16:29:00.092Z,2.20
2022-08-28T16:35:56.842Z,2.90
2022-08-28T16:37:05.909Z,2.50
2022-08-28T16:41:00.879Z,2.05
2022-08-28T16:44:59.891Z,2.63
2022-08-28T16:48:53.149Z,2.58
2022-08-28T16:52:46.669Z,2.75
2022-08-28T16:56:40.166Z,2.85
2022-08-28T17:00:33.571Z,2.55
2022-08-28T17:04:26.346Z,4.43
2022-08-28T17:08:19.964Z,2.67
2022-08-28T17:12:12.401Z,4.18
2022-08-28T17:16:06.215Z,6.70
2022-08-28T17:19:58.761Z,3.05
2022-08-28T17:23:51.275Z,3.92
2022-08-28T17:27:43.971Z,2.30
2022-08-28T17:31:37.074Z,2.42
2022-08-28T17:35:29.668Z,2.05
2022-08-28T17:39:22.478Z,2.85
2022-08-28T17:43:15.134Z,2.67
2022-08-28T17:47:07.753Z,2.20
2022-08-28T17:51:02.124Z,2.20
2022-08-28T17:54:55.185Z,2.33
2022-08-28T17:58:47.646Z,3.55
2022-08-28T18:02:40.720Z,9.52
2022-08-28T18:06:33.956Z,11.32
2022-08-28T18:10:26.883Z,10.40
2022-08-28T18:14:19.820Z,9.85
2022-08-28T18:18:15.458Z,6.57
2022-08-28T18:22:11.118Z,6.03
2022-08-28T18:26:04.129Z,4.75
2022-08-28T18:29:56.695Z,3.63
2022-08-28T18:33:50.008Z,4.50
2022-08-28T18:37:42.828Z,3.38
2022-08-28T18:41:43.537Z,2.90
2022-08-28T18:45:37.764Z,3.13
2022-08-28T18:49:30.583Z,2.67
2022-08-28T18:53:24.347Z,2.28
2022-08-28T18:57:19.083Z,2.35
2022-08-28T19:01:12.135Z,2.60
2022-08-28T19:05:06.544Z,2.33
2022-08-28T19:08:59.596Z,2.58
2022-08-28T19:12:52.619Z,2.80
2022-08-28T19:16:46.078Z,3.60
2022-08-28T19:20:38.980Z,3.60
2022-08-28T19:24:34.142Z,3.63
2022-08-28T19:28:28.410Z,3.15
2022-08-28T19:32:25.320Z,2.92
2022-08-28T19:36:22.374Z,2.78
2022-08-28T19:40:15.420Z,3.20
2022-08-28T19:44:08.347Z,3.50
2022-08-28T19:48:03.131Z,4.18
2022-08-28T19:51:56.019Z,2.70
2022-08-28T19:55:49.190Z,2.75
2022-08-28T19:59:42.070Z,2.83
2022-08-28T20:03:41.841Z,3.10
2022-08-28T20:07:34.649Z,3.10
2022-08-28T20:11:30.240Z,3.20
2022-08-28T20:15:24.502Z,3.10
2022-08-28T20:19:19.367Z,3.22
2022-08-28T20:23:12.723Z,3.53
2022-08-28T20:27:05.887Z,3.75
2022-08-28T20:30:58.939Z,4.35
2022-08-28T20:34:51.441Z,3.35
2022-08-28T20:38:43.891Z,3.33
2022-08-28T20:42:36.437Z,3.70
2022-08-28T20:46:32.089Z,3.80
2022-08-28T20:50:24.706Z,3.73
2022-08-28T20:54:17.182Z,3.80
2022-08-28T20:58:09.598Z,3.85
2022-08-28T21:02:05.208Z,4.03
2022-08-28T21:05:57.794Z,3.92
2022-08-28T21:10:06.047Z,4.15
2022-08-28T21:14:00.210Z,3.75
2022-08-28T21:17:52.846Z,4.57
2022-08-28T21:21:45.569Z,4.63
2022-08-28T21:25:40.582Z,4.80
2022-08-28T21:29:32.996Z,4.95
2022-08-28T21:33:25.458Z,4.60
2022-08-28T21:37:17.993Z,4.32
2022-08-28T21:41:13.417Z,4.68
2022-08-28T21:45:11.743Z,4.45
2022-08-28T21:49:04.693Z,4.60
2022-08-28T21:52:57.266Z,4.47
2022-08-28T21:56:50.654Z,4.65
2022-08-28T22:00:56.978Z,5.18
2022-08-28T22:04:49.665Z,4.68
2022-08-28T22:08:42.938Z,5.25
2022-08-28T22:12:36.253Z,5.80
2022-08-28T22:16:29.841Z,5.90
2022-08-28T22:20:22.405Z,5.70
2022-08-28T22:24:14.998Z,5.85
2022-08-28T22:28:08.526Z,5.90
2022-08-28T22:32:01.131Z,5.68
2022-08-28T22:35:54.205Z,5.35
2022-08-28T22:39:46.661Z,6.13
2022-08-28T22:43:39.991Z,6.38
2022-08-28T22:47:32.993Z,5.95
2022-08-28T22:51:25.574Z,6.07
2022-08-28T22:55:20.383Z,5.97
2022-08-28T22:59:12.973Z,6.25
2022-08-28T23:03:05.636Z,5.90
2022-08-28T23:06:58.422Z,7.03
2022-08-28T23:10:59.341Z,6.55
2022-08-28T23:14:53.558Z,6.07
2022-08-28T23:19:06.645Z,6.78
2022-08-28T23:22:58.962Z,6.45
2022-08-28T23:26:51.646Z,6.90
2022-08-28T23:30:48.613Z,7.68
2022-08-28T23:34:42.543Z,7.03
2022-08-28T23:38:43.159Z,7.32
2022-08-28T23:42:36.132Z,7.30
2022-08-28T23:46:28.698Z,6.53
2022-08-28T23:50:22.679Z,6.20
2022-08-28T23:54:15.207Z,7.13
2022-08-28T23:58:08.109Z,5.72
